createdAt,value
2018-07-03T00:00:36.074Z,30.50
2018-07-03T00:03:03.695Z,31.90
2018-07-03T00:15:16.292Z,30.60
2018-07-03T00:17:43.888Z,31.20
2018-07-03T00:20:11.390Z,30.90
2018-07-03T00:22:38.850Z,31.40
2018-07-03T00:25:06.386Z,33.10
2018-07-03T00:27:33.848Z,32.30
2018-07-03T00:30:01.380Z,32.80
2018-07-03T00:32:28.853Z,32.00
2018-07-03T00:34:56.411Z,32.90
2018-07-03T00:39:51.329Z,31.30
2018-07-03T00:42:18.859Z,32.30
2018-07-03T00:44:46.388Z,31.50
2018-07-03T00:47:14.191Z,31.30
2018-07-03T00:49:41.672Z,30.30
2018-07-03T00:52:09.209Z,31.50
2018-07-03T00:54:36.804Z,32.00
2018-07-03T00:59:31.814Z,32.30
2018-07-03T01:01:59.308Z,32.10
2018-07-03T01:04:26.862Z,32.50
2018-07-03T01:06:54.371Z,32.50
2018-07-03T01:09:21.891Z,33.00
2018-07-03T01:11:49.428Z,33.40
2018-07-03T01:14:16.927Z,34.00
2018-07-03T01:16:44.477Z,33.10
2018-07-03T01:19:12.027Z,34.40
2018-07-03T01:21:39.969Z,33.60
2018-07-03T01:24:07.449Z,34.30
2018-07-03T01:26:34.923Z,33.00
2018-07-03T01:29:02.630Z,33.20
2018-07-03T01:31:30.145Z,33.50
2018-07-03T01:33:57.640Z,34.40
2018-07-03T01:36:25.188Z,33.60
2018-07-03T01:38:53.989Z,33.00
2018-07-03T01:43:51.602Z,33.80
2018-07-03T01:46:19.281Z,33.60
2018-07-03T01:48:47.110Z,34.20
2018-07-03T01:51:14.593Z,34.00
2018-07-03T01:56:09.579Z,34.60
2018-07-03T01:58:37.079Z,34.60
2018-07-03T02:01:04.529Z,34.90
2018-07-03T02:03:32.016Z,34.10
2018-07-03T02:05:59.509Z,34.90
2018-07-03T02:08:26.975Z,34.50
2018-07-03T02:10:54.452Z,35.00
2018-07-03T02:13:21.881Z,35.30
2018-07-03T02:15:49.327Z,34.60
2018-07-03T02:18:16.808Z,34.40
2018-07-03T02:20:44.285Z,34.60
2018-07-03T02:23:11.773Z,34.30
2018-07-03T02:28:06.675Z,34.40
2018-07-03T02:30:34.147Z,34.90
2018-07-03T02:33:01.630Z,35.60
2018-07-03T02:35:29.120Z,35.40
2018-07-03T02:37:56.656Z,35.50
2018-07-03T02:40:24.168Z,34.90
2018-07-03T02:42:51.640Z,35.40
2018-07-03T02:45:19.491Z,35.50
2018-07-03T02:47:47.011Z,36.00
2018-07-03T02:50:14.474Z,34.80
2018-07-03T02:52:41.928Z,35.30
2018-07-03T02:55:09.444Z,35.40
2018-07-03T02:57:36.944Z,34.80
2018-07-03T03:00:05.109Z,35.40
2018-07-03T03:02:32.640Z,36.40
2018-07-03T03:05:00.188Z,36.00
2018-07-03T03:07:27.657Z,35.70
2018-07-03T03:09:55.183Z,36.40
2018-07-03T03:14:50.085Z,35.80
2018-07-03T03:17:17.671Z,36.10
2018-07-03T03:19:45.240Z,36.00
2018-07-03T03:22:12.732Z,36.50
2018-07-03T03:24:40.249Z,35.80
2018-07-03T03:27:07.727Z,36.40
2018-07-03T03:29:35.224Z,35.50
2018-07-03T03:32:02.713Z,35.80
2018-07-03T03:36:57.664Z,36.30
2018-07-03T03:39:25.141Z,36.90
2018-07-03T03:41:52.679Z,36.80
2018-07-03T03:44:20.170Z,36.80
2018-07-03T03:46:47.732Z,36.30
2018-07-03T03:49:15.180Z,36.80
2018-07-03T03:54:10.499Z,37.00
2018-07-03T03:56:37.987Z,37.50
2018-07-03T03:59:06.400Z,36.40
2018-07-03T04:01:33.969Z,36.30
2018-07-03T04:06:29.720Z,37.70
2018-07-03T04:08:57.264Z,38.00
2018-07-03T04:13:52.179Z,37.90
2018-07-03T04:16:19.652Z,38.40
2018-07-03T04:21:14.577Z,39.00
2018-07-03T04:23:42.069Z,40.30
2018-07-03T04:26:09.639Z,38.00
2018-07-03T04:28:37.187Z,37.70
2018-07-03T04:31:04.704Z,37.30
2018-07-03T04:35:59.952Z,37.00
2018-07-03T04:38:27.649Z,37.10
2018-07-03T04:40:56.537Z,37.00
2018-07-03T04:43:24.107Z,37.10
2018-07-03T04:48:20.032Z,37.60
2018-07-03T04:50:47.554Z,37.00
2018-07-03T04:53:15.050Z,37.60
2018-07-03T04:55:42.540Z,37.60
2018-07-03T04:58:09.992Z,37.00
2018-07-03T05:00:37.526Z,38.10
2018-07-03T05:03:05.220Z,37.90
2018-07-03T05:05:32.840Z,37.90
2018-07-03T05:08:01.690Z,38.60
2018-07-03T05:10:29.173Z,39.30
2018-07-03T05:12:56.741Z,39.00
2018-07-03T05:15:24.170Z,37.20
2018-07-03T05:17:51.679Z,39.40
2018-07-03T05:33:19.230Z,36.20
2018-07-03T05:35:46.708Z,37.60
2018-07-03T05:38:14.203Z,35.10
2018-07-03T05:40:41.732Z,34.50
2018-07-03T05:43:09.272Z,34.50
2018-07-03T05:45:36.871Z,35.40
2018-07-03T05:48:04.700Z,35.30
2018-07-03T05:50:32.199Z,34.70
2018-07-03T05:52:59.918Z,32.60
2018-07-03T05:55:27.430Z,32.20
2018-07-03T05:57:55.844Z,32.30
2018-07-03T06:00:23.359Z,32.60
2018-07-03T06:02:50.809Z,32.70
2018-07-03T06:05:18.320Z,30.90
2018-07-03T06:07:45.790Z,31.00
2018-07-03T06:10:13.311Z,30.60
2018-07-03T06:12:40.811Z,30.80
2018-07-03T06:15:08.413Z,30.90
2018-07-03T06:17:35.922Z,30.00
2018-07-03T06:20:03.517Z,30.40
2018-07-03T06:22:31.052Z,30.00
2018-07-03T06:24:59.052Z,30.00
2018-07-03T06:27:26.595Z,29.10
2018-07-03T06:29:54.104Z,29.00
2018-07-03T06:32:21.592Z,29.60
2018-07-03T06:34:49.078Z,29.50
2018-07-03T06:37:16.787Z,29.10
2018-07-03T06:39:44.273Z,29.40
2018-07-03T06:44:39.246Z,29.60
2018-07-03T06:47:06.736Z,29.70
2018-07-03T06:49:34.276Z,29.30
2018-07-03T06:52:01.796Z,28.30
2018-07-03T06:54:29.314Z,28.50
2018-07-03T06:56:56.820Z,28.90
2018-07-03T06:59:24.308Z,29.00
2018-07-03T07:01:51.941Z,28.40
2018-07-03T07:04:19.416Z,28.20
2018-07-03T07:06:46.957Z,28.60
2018-07-03T07:11:41.986Z,27.20
2018-07-03T07:14:09.468Z,27.40
2018-07-03T07:16:37.011Z,27.00
2018-07-03T07:19:04.779Z,27.10
2018-07-03T07:21:32.233Z,27.40
2018-07-03T07:23:59.787Z,27.90
2018-07-03T07:26:27.328Z,27.00
2018-07-03T07:28:54.920Z,27.50
2018-07-03T07:31:22.448Z,26.20
2018-07-03T07:33:49.964Z,26.30
2018-07-03T07:42:15.761Z,26.00
2018-07-03T07:44:43.341Z,26.50
2018-07-03T07:47:10.852Z,25.70
2018-07-03T07:49:38.377Z,26.00
2018-07-03T07:52:06.936Z,26.20
2018-07-03T07:54:34.567Z,26.70
2018-07-03T07:57:02.028Z,24.00
2018-07-03T07:59:29.566Z,25.50
2018-07-03T08:01:57.113Z,24.70
2018-07-03T08:04:24.648Z,24.90
2018-07-03T08:06:52.247Z,25.80
2018-07-03T08:09:19.766Z,26.30
2018-07-03T08:11:47.284Z,25.30
2018-07-03T08:14:14.768Z,25.20
2018-07-03T08:16:42.262Z,25.50
2018-07-03T08:19:09.791Z,23.90
2018-07-03T08:21:37.264Z,24.30
2018-07-03T08:24:04.976Z,23.30
2018-07-03T08:26:32.780Z,23.20
2018-07-03T08:29:00.291Z,24.70
2018-07-03T08:31:27.819Z,23.10
2018-07-03T08:33:55.387Z,24.10
2018-07-03T08:36:22.807Z,24.60
2018-07-03T08:38:50.266Z,23.70
2018-07-03T08:41:17.747Z,24.70
2018-07-03T08:43:45.239Z,24.50
2018-07-03T08:46:14.140Z,23.80
2018-07-03T08:48:41.728Z,20.50
2018-07-03T08:51:09.277Z,21.30
2018-07-03T08:53:36.742Z,21.60
2018-07-03T08:56:04.210Z,21.40
2018-07-03T08:58:31.823Z,20.30
2018-07-03T09:00:59.408Z,20.30
2018-07-03T09:03:26.945Z,20.80
2018-07-03T09:05:54.540Z,20.80
2018-07-03T09:08:22.061Z,21.30
2018-07-03T09:10:49.563Z,20.60
2018-07-03T09:13:17.040Z,20.90
2018-07-03T09:15:44.600Z,20.40
2018-07-03T09:18:13.249Z,21.30
2018-07-03T09:20:40.752Z,21.50
2018-07-03T09:23:08.284Z,21.20
2018-07-03T09:25:35.799Z,21.40
2018-07-03T09:28:03.324Z,20.90
2018-07-03T09:30:30.907Z,20.40
2018-07-03T09:32:58.392Z,19.60
2018-07-03T09:35:25.947Z,19.60
2018-07-03T09:37:53.836Z,21.30
2018-07-03T09:40:22.144Z,21.90
2018-07-03T09:45:17.255Z,18.90
2018-07-03T09:47:44.792Z,19.20
2018-07-03T09:50:12.396Z,20.60
2018-07-03T09:52:40.228Z,19.30
2018-07-03T09:55:08.853Z,20.50
2018-07-03T10:00:04.556Z,21.30
2018-07-03T10:02:32.114Z,21.60
2018-07-03T10:04:59.611Z,22.90
2018-07-03T10:07:27.247Z,21.50
2018-07-03T10:09:54.887Z,19.40
2018-07-03T10:12:22.482Z,20.70
2018-07-03T10:14:50.032Z,21.10
2018-07-03T10:17:17.713Z,21.50
2018-07-03T10:19:45.207Z,22.00
2018-07-03T10:22:12.699Z,21.20
2018-07-03T10:24:40.827Z,21.40
2018-07-03T10:27:08.379Z,19.00
2018-07-03T10:29:36.159Z,20.70
2018-07-03T10:32:03.787Z,20.30
2018-07-03T10:34:31.292Z,20.70
2018-07-03T10:36:58.796Z,21.10
2018-07-03T10:39:26.358Z,21.80
2018-07-03T10:41:53.817Z,21.10
2018-07-03T10:44:21.345Z,21.30
2018-07-03T10:46:48.911Z,21.30
2018-07-03T10:51:45.607Z,19.00
2018-07-03T10:54:13.247Z,19.30
2018-07-03T10:59:09.123Z,18.10
2018-07-03T11:04:04.134Z,19.30
2018-07-03T11:06:31.643Z,19.30
2018-07-03T11:08:59.109Z,18.90
2018-07-03T11:13:54.012Z,18.90
2018-07-03T11:16:21.813Z,19.30
2018-07-03T11:18:49.357Z,19.60
2018-07-03T11:21:16.828Z,19.90
2018-07-03T11:23:44.286Z,20.90
2018-07-03T11:26:11.796Z,18.50
2018-07-03T11:28:39.324Z,19.20
2018-07-03T11:31:06.885Z,17.20
2018-07-03T11:33:34.438Z,19.90
2018-07-03T11:36:02.409Z,17.40
2018-07-03T11:38:29.892Z,19.50
2018-07-03T11:40:57.443Z,20.20
2018-07-03T11:43:25.014Z,18.00
2018-07-03T11:45:52.532Z,17.60
2018-07-03T11:48:20.156Z,18.90
2018-07-03T11:50:47.648Z,17.00
2018-07-03T11:53:16.155Z,19.40
2018-07-03T11:55:43.705Z,19.80
2018-07-03T11:58:11.612Z,18.70
2018-07-03T12:00:39.233Z,19.30
2018-07-03T12:03:07.913Z,17.60
2018-07-03T12:08:03.287Z,18.70
2018-07-03T12:10:32.621Z,19.00
2018-07-03T12:13:00.138Z,19.80
2018-07-03T12:15:27.630Z,19.30
2018-07-03T12:17:55.215Z,17.80
2018-07-03T12:20:22.790Z,17.70
2018-07-03T12:27:45.749Z,18.30
2018-07-03T12:30:13.517Z,17.90
2018-07-03T12:32:41.033Z,18.40
2018-07-03T12:35:08.920Z,18.60
2018-07-03T12:40:04.125Z,18.60
2018-07-03T12:42:31.628Z,18.10
2018-07-03T12:47:26.772Z,18.40
2018-07-03T12:49:54.866Z,17.00
2018-07-03T12:52:22.397Z,18.70
2018-07-03T12:54:49.854Z,19.40
2018-07-03T12:57:17.676Z,18.70
2018-07-03T12:59:45.206Z,16.50
2018-07-03T13:04:40.316Z,17.50
2018-07-03T13:07:07.901Z,17.50
2018-07-03T13:09:35.400Z,16.90
2018-07-03T13:12:02.950Z,18.10
2018-07-03T13:14:30.488Z,18.00
2018-07-03T13:16:58.161Z,18.50
2018-07-03T13:19:25.735Z,17.00
2018-07-03T13:21:53.240Z,17.40
2018-07-03T13:24:20.947Z,17.90
2018-07-03T13:26:48.503Z,19.00
2018-07-03T13:31:44.025Z,18.70
2018-07-03T13:34:13.593Z,18.90
2018-07-03T13:36:41.086Z,19.10
2018-07-03T13:39:09.635Z,18.90
2018-07-03T13:41:37.212Z,19.10
2018-07-03T13:44:04.807Z,17.90
2018-07-03T13:46:32.428Z,18.30
2018-07-03T13:49:00.234Z,18.60
2018-07-03T13:51:27.775Z,18.80
2018-07-03T13:53:55.237Z,17.40
2018-07-03T13:56:22.713Z,17.70
2018-07-03T13:58:50.283Z,19.00
2018-07-03T14:01:17.815Z,18.80
2018-07-03T14:03:45.278Z,17.80
2018-07-03T14:06:12.886Z,18.30
2018-07-03T14:08:40.366Z,17.10
2018-07-03T14:11:08.608Z,17.80
2018-07-03T14:13:36.120Z,18.90
2018-07-03T14:16:03.676Z,18.80
2018-07-03T14:18:31.176Z,18.50
2018-07-03T14:20:59.075Z,17.80
2018-07-03T14:28:22.699Z,18.20
2018-07-03T14:30:50.284Z,19.00
2018-07-03T14:33:17.836Z,19.40
2018-07-03T14:35:45.361Z,19.60
2018-07-03T14:38:13.056Z,18.70
2018-07-03T14:40:40.561Z,19.10
2018-07-03T14:43:08.075Z,19.60
2018-07-03T14:45:35.777Z,19.60
2018-07-03T14:48:03.304Z,19.70
2018-07-03T14:50:30.884Z,19.80
2018-07-03T14:52:58.408Z,19.50
2018-07-03T14:55:25.948Z,20.60
2018-07-03T14:57:53.453Z,20.50
2018-07-03T15:00:20.994Z,20.00
2018-07-03T15:02:48.490Z,20.30
2018-07-03T15:05:16.129Z,21.20
2018-07-03T15:07:43.652Z,21.00
2018-07-03T15:12:39.596Z,20.20
2018-07-03T15:15:07.175Z,21.00
2018-07-03T15:17:34.697Z,21.10
2018-07-03T15:22:29.739Z,19.70
2018-07-03T15:24:57.416Z,20.90
2018-07-03T15:27:24.904Z,20.70
2018-07-03T15:29:52.411Z,20.50
2018-07-03T15:32:19.938Z,20.60
2018-07-03T15:34:47.501Z,20.50
2018-07-03T15:37:15.048Z,20.50
2018-07-03T15:39:42.640Z,20.80
2018-07-03T15:42:10.196Z,20.10
2018-07-03T15:44:49.034Z,20.80
2018-07-03T15:49:44.635Z,20.60
2018-07-03T15:52:12.148Z,21.50
2018-07-03T15:54:40.663Z,21.70
2018-07-03T15:57:08.221Z,22.30
2018-07-03T15:59:35.857Z,22.10
2018-07-03T16:02:03.519Z,22.20
2018-07-03T16:05:10.045Z,22.70
2018-07-03T16:07:47.747Z,21.30
2018-07-03T16:10:15.215Z,21.50
2018-07-03T16:12:42.698Z,22.70
2018-07-03T16:15:10.266Z,23.20
2018-07-03T16:17:37.874Z,22.00
2018-07-03T16:20:10.941Z,20.80
2018-07-03T16:22:38.730Z,22.60
2018-07-03T16:27:33.827Z,23.60
2018-07-03T16:32:28.834Z,23.50
2018-07-03T16:42:18.916Z,22.70
2018-07-03T16:44:46.540Z,23.20
2018-07-03T16:47:14.048Z,23.90
2018-07-03T16:49:41.610Z,24.20
2018-07-03T16:52:09.351Z,24.30
2018-07-03T16:57:04.439Z,23.30
2018-07-03T16:59:32.027Z,23.80
2018-07-03T17:01:59.551Z,24.20
2018-07-03T17:04:27.015Z,24.50
2018-07-03T17:06:54.589Z,24.00
2018-07-03T17:09:22.148Z,24.40
2018-07-03T17:11:49.685Z,23.60
2018-07-03T17:14:17.976Z,23.90
2018-07-03T17:16:45.533Z,24.60
2018-07-03T17:19:18.800Z,25.20
2018-07-03T17:21:46.813Z,25.10
2018-07-03T17:24:14.413Z,23.50
2018-07-03T17:26:41.971Z,22.20
2018-07-03T17:29:09.477Z,24.80
2018-07-03T17:31:37.021Z,24.40
2018-07-03T17:34:04.757Z,24.50
2018-07-03T17:36:32.259Z,23.90
2018-07-03T17:39:13.693Z,23.60
2018-07-03T17:41:52.999Z,25.10
2018-07-03T17:44:29.319Z,23.80
2018-07-03T17:46:57.077Z,24.20
2018-07-03T17:49:24.596Z,25.50
2018-07-03T17:56:48.152Z,25.80
2018-07-03T17:59:15.729Z,25.90
2018-07-03T18:01:43.248Z,26.20
2018-07-03T18:04:10.962Z,25.90
2018-07-03T18:06:38.453Z,26.40
2018-07-03T18:09:09.913Z,26.60
2018-07-03T18:11:37.476Z,27.10
2018-07-03T18:14:05.722Z,26.90
2018-07-03T18:16:33.278Z,26.40
2018-07-03T18:19:06.639Z,26.60
2018-07-03T18:21:35.466Z,25.80
2018-07-03T18:26:30.760Z,26.50
2018-07-03T18:28:58.380Z,26.80
2018-07-03T18:31:25.994Z,27.00
2018-07-03T18:33:53.572Z,27.00
2018-07-03T18:36:21.211Z,27.40
2018-07-03T18:38:48.766Z,27.80
2018-07-03T20:03:14.122Z,31.30
2018-07-03T20:05:41.856Z,32.20
2018-07-03T20:08:09.503Z,31.90
2018-07-03T20:10:37.765Z,31.30
2018-07-03T20:13:06.544Z,31.00
2018-07-03T20:15:35.481Z,30.70
2018-07-03T20:18:03.211Z,30.10
2018-07-03T20:22:58.894Z,30.70
2018-07-03T20:25:26.461Z,31.40
2018-07-03T20:30:22.565Z,30.50
2018-07-03T20:32:50.165Z,31.00
2018-07-03T20:35:18.329Z,31.60
2018-07-03T20:38:01.708Z,30.80
2018-07-03T20:40:36.980Z,30.60
2018-07-03T20:43:04.681Z,31.40
2018-07-03T20:45:32.322Z,31.20
2018-07-03T20:47:59.942Z,30.80
2018-07-03T20:50:27.551Z,30.70
2018-07-03T20:52:55.236Z,31.40
2018-07-03T20:55:22.807Z,30.50
2018-07-03T20:57:50.571Z,30.50
2018-07-03T21:00:18.173Z,31.10
2018-07-03T21:02:45.725Z,31.10
2018-07-03T21:05:14.532Z,31.40
2018-07-03T21:10:09.545Z,30.90
2018-07-03T21:12:37.143Z,31.40
2018-07-03T21:15:04.846Z,31.90
2018-07-03T21:17:32.431Z,32.30
2018-07-03T21:19:59.936Z,34.10
2018-07-03T21:22:27.474Z,33.60
2018-07-03T21:24:55.031Z,33.60
2018-07-03T21:27:25.017Z,33.80
2018-07-03T21:29:52.758Z,33.50
2018-07-03T21:32:20.400Z,33.10
2018-07-03T21:34:48.009Z,33.90
2018-07-03T21:37:15.576Z,33.40
2018-07-03T21:39:43.090Z,33.10
2018-07-03T21:42:10.678Z,31.80
2018-07-03T21:44:38.333Z,32.10
2018-07-03T21:47:06.134Z,33.10
2018-07-03T21:49:33.725Z,34.70
2018-07-03T21:52:01.248Z,35.10
2018-07-03T21:54:28.839Z,34.10
2018-07-03T21:56:56.359Z,33.70
2018-07-03T21:59:29.272Z,35.50
2018-07-03T22:01:56.889Z,31.90
2018-07-03T22:04:24.422Z,32.80
2018-07-03T22:06:53.199Z,32.30
2018-07-03T22:09:20.762Z,33.20
2018-07-03T22:14:15.728Z,32.80
2018-07-03T22:16:43.768Z,33.00
2018-07-03T22:19:11.332Z,34.20
2018-07-03T22:21:38.945Z,34.80
2018-07-03T22:24:06.497Z,32.10
2018-07-03T22:26:34.004Z,32.80
2018-07-03T22:31:29.091Z,33.30
2018-07-03T22:33:56.727Z,34.30
2018-07-03T22:36:24.206Z,32.00
2018-07-03T22:40:16.304Z,31.50
2018-07-03T22:42:43.769Z,31.60
2018-07-03T22:45:11.442Z,32.20
2018-07-03T22:47:38.913Z,32.50
2018-07-03T22:50:06.398Z,32.80
2018-07-03T22:52:34.885Z,32.10
2018-07-03T22:55:03.758Z,30.80
2018-07-03T22:57:31.288Z,32.10
2018-07-03T22:59:58.857Z,31.60
2018-07-03T23:02:26.410Z,32.10
2018-07-03T23:04:53.928Z,33.50
2018-07-03T23:07:21.473Z,33.00
2018-07-03T23:09:48.938Z,32.90
2018-07-03T23:12:18.972Z,33.50
2018-07-03T23:14:48.013Z,33.70
2018-07-03T23:17:15.659Z,32.70
2018-07-03T23:19:43.237Z,33.20
2018-07-03T23:22:10.887Z,32.70
2018-07-03T23:24:39.072Z,33.70
2018-07-03T23:27:06.584Z,33.50
2018-07-03T23:29:34.187Z,34.10
2018-07-03T23:32:01.748Z,34.40
2018-07-03T23:34:32.153Z,33.30
2018-07-03T23:36:59.616Z,34.00
2018-07-03T23:39:27.120Z,34.50
2018-07-03T23:41:54.628Z,33.90
2018-07-03T23:44:22.072Z,33.10
2018-07-03T23:47:02.131Z,33.50
2018-07-03T23:49:41.547Z,34.10
2018-07-03T23:52:20.456Z,34.10
2018-07-03T23:54:59.855Z,34.40
2018-07-03T23:57:39.532Z,32.90
